Latest Weather Observations for Ouse

IDT60801

Issued at 7:02 pm EST Sunday 24 May 2015 (issued every 30 minutes, with the page automatically refreshed every 10 minutes)

About weather observations | Map of weather stations | Latest weather observations for TAS | Other Formats
Station Details ID: 095048 Name: OUSE FIRE STATION Lat: -42.48 Lon: 146.71 Height: 90.0 m
Data from the previous 72 hours. | See also: Recent months at Ouse
Date/Time
EST
Temp
°C
App
Temp
°C
Dew
Point
Rel
Hum
%
Delta-T
°C
Wind Press
QNH
hPa
Press
MSL
hPa
Rain
since 9 am
mm
Dir
 
Spd
km/h
Gust
km/h
Spd
kts
Gust
kts
24/07:00pm 1.7 -0.2 0.7 93 0.4 CALM 0 0 0 0 1029.2 1029.3 0.0
24/06:30pm 2.4 -0.2 1.1 91 0.5 NNW 4 7 2 4 1028.9 1029.0 0.0
24/06:00pm 3.7 1.7 2.4 91 0.5 E 2 9 1 5 1028.8 1028.9 0.0
24/05:30pm 4.9 3.4 2.8 86 0.9 CALM 0 0 0 0 1028.5 1028.6 0.0
24/05:00pm 6.3 5.0 4.0 85 1.0 CALM 0 0 0 0 1028.2 1028.3 0.0
24/04:30pm 7.4 6.2 4.4 81 1.3 CALM 0 0 0 0 1028.2 1028.3 0.0
24/04:00pm 8.4 7.1 4.2 75 1.8 CALM 0 0 0 0 1028.3 1028.4 0.0
24/03:30pm 8.7 7.4 3.9 72 2.1 CALM 0 0 0 0 1028.3 1028.4 0.0
24/03:00pm 8.7 7.4 3.9 72 2.1 CALM 0 7 0 4 1028.3 1028.4 0.0
24/02:30pm 8.9 7.1 3.5 69 2.3 SSE 2 7 1 4 1028.1 1028.2 0.0
24/02:00pm 9.5 7.4 3.9 68 2.4 S 4 7 2 4 1028.3 1028.4 0.0
24/01:30pm 8.6 6.4 3.2 69 2.3 SE 4 9 2 5 1028.6 1028.7 0.0
24/01:00pm 7.9 5.2 2.8 70 2.1 SSE 6 7 3 4 1028.9 1029.0 0.0
24/12:30pm 7.3 4.6 2.4 71 2.0 SSE 6 9 3 5 1029.2 1029.3 0.0
24/12:00pm 6.8 4.4 2.1 72 1.9 SE 4 7 2 4 1029.5 1029.6 0.0
24/11:30am 5.4 2.4 1.9 78 1.4 SE 7 9 4 5 1030.0 1030.2 0.0
24/11:00am 4.9 1.8 1.2 77 1.4 SE 7 9 4 5 1030.4 1030.6 0.0
24/10:30am 5.2 3.4 1.1 75 1.6 CALM 0 0 0 0 1030.7 1030.9 0.0
24/10:00am 2.8 0.9 0.5 85 0.9 CALM 0 0 0 0 1030.9 1031.1 0.0
24/09:30am 1.6 -0.3 0.7 94 0.3 CALM 0 0 0 0 1031.1 1031.3 0.0
24/09:00am 0.0 -2.0 -0.1 99 0.0 CALM 0 0 0 0 1031.1 1031.3 0.0
24/08:30am -1.7 -4.7 -1.8 99 0.0 NE 4 7 2 4 1031.1 1031.3 0.0
24/08:00am -3.5 -6.0 -3.9 97 0.0 CALM 0 0 0 0 1030.8 1031.0 0.0
24/07:30am -3.7 -6.2 -4.2 96 0.0 CALM 0 0 0 0 1030.6 1030.8 0.0
24/07:00am -3.2 -5.7 -3.6 97 0.0 CALM 0 0 0 0 1030.4 1030.6 0.0
24/06:30am -2.9 -5.7 -3.2 98 0.0 NE 2 7 1 4 1030.2 1030.4 0.0
24/06:00am -2.8 -5.2 -3.1 98 0.0 CALM 0 0 0 0 1029.9 1030.1 0.0
24/05:30am -2.6 -5.0 -3.0 97 0.0 CALM 0 0 0 0 1029.8 1030.0 0.0
24/05:00am -2.4 -4.8 -2.8 97 0.0 CALM 0 0 0 0 1029.7 1029.8 0.0
24/04:30am -1.9 -4.2 -2.3 97 0.1 CALM 0 0 0 0 1029.4 1029.5 0.0
24/04:00am -1.3 -4.7 -1.7 97 0.1 SE 6 7 3 4 1029.3 1029.4 0.0
24/03:30am -1.2 -3.8 -1.8 96 0.2 SSE 2 7 1 4 1029.3 1029.4 0.0
24/03:00am -0.7 -3.2 -1.1 97 0.1 SSE 2 7 1 4 1029.3 1029.4 0.0
24/02:30am -0.1 -3.3 -0.5 97 0.1 SSE 6 7 3 4 1029.5 1029.6 0.0
24/02:00am 0.4 -3.3 0.0 97 0.1 SSE 9 13 5 7 1029.5 1029.6 0.0
24/01:30am 0.5 -1.9 -0.1 96 0.2 S 2 6 1 3 1029.5 1029.6 0.0
24/01:00am 1.1 -2.0 0.4 95 0.3 S 6 7 3 4 1029.5 1029.6 0.0
24/12:30am 1.6 -1.4 0.6 93 0.4 S 6 9 3 5 1029.3 1029.4 0.0
24/12:00am 2.3 -0.7 0.8 90 0.6 SE 6 7 3 4 1029.3 1029.4 0.0
 
Date/Time
EST
Temp
°C
App
Temp
°C
Dew
Point
Rel
Hum
%
Delta-T
°C
Wind Press
QNH
hPa
Press
MSL
hPa
Rain
since 9 am
mm
Dir
 
Spd
km/h
Gust
km/h
Spd
kts
Gust
kts
23/11:30pm 3.0 -0.1 1.4 89 0.6 SE 7 9 4 5 1029.3 1029.4 0.0
23/11:00pm 4.4 1.5 1.4 81 1.2 NNE 6 7 3 4 1029.0 1029.1 0.0
23/10:30pm 5.7 2.1 2.9 82 1.2 N 11 15 6 8 1029.1 1029.2 0.0
23/10:00pm 5.5 2.3 2.8 83 1.1 NNW 9 17 5 9 1029.2 1029.3 0.0
23/09:30pm 5.3 1.9 2.1 80 1.3 WNW 9 13 5 7 1029.3 1029.4 0.0
23/09:00pm 6.9 3.7 3.0 76 1.6 N 9 13 5 7 1029.5 1029.6 0.0
23/08:30pm 7.3 3.4 3.2 75 1.7 NNW 13 22 7 12 1029.4 1029.5 0.0
23/08:00pm 7.4 3.4 3.1 74 1.8 NW 13 19 7 10 1029.4 1029.5 0.0
23/07:30pm 8.9 4.3 3.5 69 2.3 WNW 17 24 9 13 1029.2 1029.3 0.0
23/07:00pm 7.3 3.8 3.4 76 1.6 NNW 11 15 6 8 1029.2 1029.3 0.0
23/06:30pm 7.5 3.9 3.0 73 1.9 N 11 15 6 8 1029.1 1029.2 0.0
23/06:00pm 8.8 5.7 3.4 69 2.3 NNW 9 15 5 8 1029.1 1029.2 0.0
23/05:30pm 9.4 5.8 3.2 65 2.7 W 11 15 6 8 1028.9 1029.0 0.0
23/05:00pm 9.2 6.1 3.8 69 2.3 WNW 9 13 5 7 1028.8 1028.9 0.0
23/04:30pm 10.3 7.2 3.8 64 2.9 NW 9 20 5 11 1028.8 1028.9 0.0
23/04:00pm 11.7 7.5 3.7 58 3.5 WSW 15 26 8 14 1028.9 1029.0 0.0
23/03:30pm 12.2 7.2 3.4 55 3.9 W 19 33 10 18 1028.7 1028.8 0.0
23/03:00pm 13.1 9.5 4.8 57 3.8 W 13 26 7 14 1028.5 1028.6 0.0
23/02:30pm 13.1 9.4 4.3 55 4.0 WNW 13 20 7 11 1028.5 1028.6 0.0
23/02:00pm 13.1 8.9 4.0 54 4.1 W 15 26 8 14 1028.7 1028.8 0.0
23/01:30pm 12.7 7.6 3.1 52 4.3 W 19 30 10 16 1028.8 1028.9 0.0
23/01:00pm 12.7 7.7 3.4 53 4.1 W 19 33 10 18 1028.8 1028.9 0.0
23/12:30pm 12.9 6.7 4.1 55 4.0 W 26 37 14 20 1028.7 1028.8 0.0
23/12:00pm 12.8 8.1 5.2 60 3.5 NW 19 28 10 15 1028.9 1029.0 0.0
23/11:30am 12.6 7.9 5.1 60 3.5 NW 19 24 10 13 1029.2 1029.3 0.0
23/11:00am 12.2 7.8 4.7 60 3.4 W 17 28 9 15 1029.6 1029.7 0.0
23/10:30am 12.4 7.4 4.4 58 3.7 W 20 28 11 15 1029.6 1029.7 0.0
23/10:00am 12.0 8.0 4.7 61 3.3 WNW 15 26 8 14 1029.5 1029.6 0.0
23/09:30am 11.4 6.9 4.4 62 3.2 NW 17 26 9 14 1029.5 1029.6 0.0
23/09:00am 10.0 6.7 4.4 68 2.5 NNW 11 20 6 11 1029.4 1029.5 0.0
23/08:30am 9.4 4.8 3.8 68 2.5 NNW 17 24 9 13 1029.4 1029.5 0.0
23/08:00am 8.9 4.3 3.7 70 2.2 WNW 17 24 9 13 1029.2 1029.3 0.0
23/07:30am 8.5 4.2 3.4 70 2.2 WNW 15 24 8 13 1029.0 1029.1 0.0
23/07:00am 8.2 4.2 3.1 70 2.2 NW 13 22 7 12 1028.9 1029.0 0.0
23/06:30am 7.7 4.4 2.6 70 2.1 NW 9 20 5 11 1028.7 1028.8 0.0
23/06:00am 8.2 4.2 2.7 68 2.3 WNW 13 28 7 15 1028.6 1028.7 0.0
23/05:30am 7.3 4.5 3.0 74 1.8 NE 7 19 4 10 1028.3 1028.4 0.0
23/05:00am 6.3 3.4 2.6 77 1.5 NNE 7 11 4 6 1028.1 1028.2 0.0
23/04:30am 7.2 3.9 2.5 72 2.0 NNW 9 17 5 9 1027.9 1028.0 0.0
23/04:00am 7.6 3.2 2.5 70 2.1 NW 15 24 8 13 1028.0 1028.1 0.0
23/03:30am 8.2 3.8 2.9 69 2.3 WNW 15 22 8 12 1028.1 1028.2 0.0
23/03:00am 7.4 3.4 2.9 73 1.9 NNW 13 17 7 9 1028.3 1028.4 0.0
23/02:30am 7.6 3.7 3.3 74 1.8 NW 13 20 7 11 1028.5 1028.6 0.0
23/02:00am 7.7 3.5 3.6 75 1.7 WNW 15 20 8 11 1028.6 1028.7 0.0
23/01:30am 7.3 2.7 3.5 77 1.6 NW 17 22 9 12 1028.5 1028.6 0.0
23/01:00am 7.0 2.4 3.6 79 1.4 NNW 17 20 9 11 1028.3 1028.4 0.0
23/12:30am 6.6 1.9 3.4 80 1.4 NNW 17 20 9 11 1028.4 1028.5 0.0
23/12:00am 7.3 2.3 3.7 78 1.5 NW 19 24 10 13 1028.5 1028.6 0.0
 
Date/Time
EST
Temp
°C
App
Temp
°C
Dew
Point
Rel
Hum
%
Delta-T
°C
Wind Press
QNH
hPa
Press
MSL
hPa
Rain
since 9 am
mm
Dir
 
Spd
km/h
Gust
km/h
Spd
kts
Gust
kts
22/11:30pm 7.3 2.7 3.9 79 1.5 NW 17 22 9 12 1028.5 1028.6 0.0
22/11:00pm 7.5 3.3 3.9 78 1.5 NW 15 20 8 11 1028.5 1028.6 0.0
22/10:30pm 7.4 2.4 3.8 78 1.6 NNW 19 24 10 13 1028.5 1028.6 0.0
22/10:00pm 7.4 3.2 3.8 78 1.5 NNW 15 20 8 11 1028.5 1028.6 0.0
22/09:30pm 7.7 3.1 3.9 77 1.6 N 17 22 9 12 1028.4 1028.5 0.0
22/09:00pm 7.4 3.5 3.6 77 1.6 N 13 19 7 10 1028.2 1028.3 0.0
22/08:30pm 7.2 2.9 3.4 77 1.6 N 15 22 8 12 1028.3 1028.4 0.0
22/08:00pm 7.9 3.6 3.4 73 1.9 NNW 15 24 8 13 1027.9 1028.0 0.0
22/07:30pm 8.6 4.4 4.0 73 2.0 NW 15 24 8 13 1027.7 1027.8 0.0
22/07:00pm 8.1 3.5 3.6 73 1.9 NW 17 20 9 11 1027.4 1027.6 0.0
22/06:30pm 8.3 4.1 3.6 72 2.0 NNW 15 20 8 11 1027.4 1027.6 0.0
22/06:00pm 8.4 4.1 3.3 70 2.2 NNW 15 22 8 12 1027.3 1027.5 0.0
22/05:30pm 8.8 3.8 3.4 69 2.3 NNW 19 28 10 15 1027.5 1027.7 0.0
22/05:00pm 9.5 4.9 3.5 66 2.6 NW 17 26 9 14 1027.4 1027.6 0.0
22/04:30pm 10.5 5.4 3.3 61 3.2 WNW 19 32 10 17 1027.3 1027.5 0.0
22/04:00pm 10.8 5.7 3.1 59 3.3 W 19 30 10 16 1027.3 1027.5 0.0
22/03:30pm 11.8 7.2 3.6 57 3.7 WNW 17 26 9 14 1027.2 1027.4 0.0
22/03:00pm 12.3 7.1 3.8 56 3.8 W 20 30 11 16 1027.0 1027.2 0.0
22/02:30pm 12.4 6.8 3.6 55 3.9 W 22 33 12 18 1026.9 1027.1 0.0
22/02:00pm 12.5 6.9 3.7 55 3.9 W 22 35 12 19 1027.0 1027.2 0.0
22/01:30pm 12.7 7.5 3.6 54 4.1 W 20 35 11 19 1027.2 1027.4 0.0
22/01:00pm 12.5 7.6 4.2 57 3.7 W 19 33 10 18 1027.4 1027.6 0.0
22/12:30pm 12.2 6.8 4.4 59 3.6 W 22 35 12 19 1027.7 1027.8 0.0
22/12:00pm 11.2 7.0 3.7 60 3.3 WNW 15 26 8 14 1028.1 1028.2 0.0
22/11:30am 11.8 7.3 4.1 59 3.5 WNW 17 24 9 13 1028.5 1028.6 0.0
22/11:00am 11.2 7.3 3.5 59 3.4 WNW 13 20 7 11 1028.9 1029.0 0.0
22/10:30am 10.3 6.0 3.3 62 3.1 NW 15 24 8 13 1028.9 1029.0 0.0
22/10:00am 9.5 5.6 3.3 65 2.7 NW 13 20 7 11 1028.9 1029.0 0.0
22/09:30am 9.2 4.5 3.2 66 2.6 WNW 17 24 9 13 1029.0 1029.1 0.0
22/09:00am 9.4 5.5 3.2 65 2.7 NW 13 20 7 11 1028.8 1028.9 0.0
22/08:30am 8.3 4.8 3.4 71 2.1 WNW 11 24 6 13 1028.8 1028.9 0.0
22/08:00am 5.1 2.8 2.8 85 0.9 W 4 9 2 5 1028.7 1028.8 0.0
22/07:30am 5.0 1.6 2.0 81 1.2 SSE 9 13 5 7 1028.6 1028.7 0.0
22/07:00am 7.9 5.0 2.6 69 2.2 WNW 7 11 4 6 1028.3 1028.4 0.0
22/06:30am 7.8 4.5 2.7 70 2.1 NW 9 13 5 7 1027.9 1028.0 0.0
22/06:00am 7.6 4.3 2.7 71 2.0 NW 9 13 5 7 1028.0 1028.1 0.0
22/05:30am 7.0 3.4 2.9 75 1.7 NW 11 13 6 7 1028.1 1028.2 0.0
22/05:00am 6.0 3.2 3.0 81 1.2 NW 7 11 4 6 1028.1 1028.2 0.0
22/04:30am 5.8 3.0 3.0 82 1.2 WNW 7 13 4 7 1027.9 1028.0 0.0
22/04:00am 6.3 2.8 3.5 82 1.2 NW 11 17 6 9 1027.8 1027.9 0.0
22/03:30am 4.3 1.0 2.5 88 0.7 NW 9 13 5 7 1028.0 1028.1 0.0
22/03:00am 4.3 0.9 2.0 85 0.9 NW 9 11 5 6 1028.0 1028.1 0.0
22/02:30am 5.8 2.9 2.4 79 1.4 W 7 9 4 5 1028.3 1028.4 0.0
22/02:00am 7.0 4.2 3.1 76 1.6 WSW 7 11 4 6 1028.4 1028.5 0.0
22/01:30am 7.7 4.5 3.0 72 2.0 WSW 9 15 5 8 1028.3 1028.4 0.0
22/01:00am 7.7 4.6 3.4 74 1.8 WSW 9 13 5 7 1028.3 1028.4 0.0
22/12:30am 7.4 4.7 3.8 78 1.6 NW 7 11 4 6 1028.4 1028.5 0.0
22/12:00am 8.0 5.4 4.0 76 1.7 WNW 7 11 4 6 1028.5 1028.6 0.0
 
Date/Time
EST
Temp
°C
App
Temp
°C
Dew
Point
Rel
Hum
%
Delta-T
°C
Wind Press
QNH
hPa
Press
MSL
hPa
Rain
since 9 am
mm
Dir
 
Spd
km/h
Gust
km/h
Spd
kts
Gust
kts
21/11:30pm 8.0 5.0 4.2 77 1.7 WNW 9 11 5 6 1028.4 1028.5 0.0
21/11:00pm 7.1 4.9 5.3 88 0.8 NNW 6 9 3 5 1028.4 1028.5 0.0
21/10:30pm 7.3 6.3 5.4 88 0.8 CALM 0 0 0 0 1028.5 1028.6 0.0
21/10:00pm 7.5 6.5 5.5 87 0.9 CALM 0 0 0 0 1028.6 1028.7 0.0
21/09:30pm 7.6 6.6 5.6 87 0.9 CALM 0 4 0 2 1028.5 1028.6 0.0
21/09:00pm 8.1 7.2 5.9 86 1.0 CALM 0 6 0 3 1028.5 1028.6 0.0
21/08:30pm 8.3 6.3 6.1 86 1.0 S 6 7 3 4 1028.4 1028.5 0.0
21/08:00pm 8.5 6.4 5.8 83 1.2 S 6 7 3 4 1028.2 1028.3 0.0
21/07:30pm 8.5 6.8 6.0 84 1.1 E 4 7 2 4 1028.0 1028.1 0.0

Other Formats:

Comma delimited format used in spreadsheet applications
http://www.bom.gov.au/fwo/IDT60801/IDT60801.94957.axf

JavaScript Object Notation format (JSON) in row-major order
http://www.bom.gov.au/fwo/IDT60801/IDT60801.94957.json